createdAt,value
2019-02-23T00:01:47.837Z,3.06
2019-02-23T00:04:17.323Z,3.01
2019-02-23T00:06:46.832Z,2.96
2019-02-23T00:09:16.404Z,2.99
2019-02-23T00:11:45.893Z,2.98
2019-02-23T00:14:15.390Z,3.02
2019-02-23T00:17:23.382Z,3.02
2019-02-23T00:19:52.885Z,2.99
2019-02-23T00:22:22.395Z,2.92
2019-02-23T00:25:11.225Z,2.84
2019-02-23T00:27:40.732Z,2.66
2019-02-23T00:30:10.387Z,2.57
2019-02-23T00:32:39.895Z,2.45
2019-02-23T00:35:09.404Z,2.46
2019-02-23T00:37:38.914Z,2.44
2019-02-23T00:40:08.889Z,2.43
2019-02-23T00:42:38.397Z,2.50
2019-02-23T00:45:27.254Z,2.52
2019-02-23T00:47:56.747Z,2.54
2019-02-23T00:50:26.239Z,2.64
2019-02-23T00:52:55.750Z,3.02
2019-02-23T00:55:44.601Z,3.02
2019-02-23T00:58:26.927Z,2.81
2019-02-23T01:00:57.100Z,2.73
2019-02-23T01:03:26.660Z,2.33
2019-02-23T01:05:56.164Z,2.10
2019-02-23T01:08:25.654Z,2.00
2019-02-23T01:11:14.523Z,1.82
2019-02-23T01:13:44.013Z,0.99
2019-02-23T01:16:13.537Z,1.62
2019-02-23T01:18:43.098Z,1.46
2019-02-23T01:21:13.255Z,1.34
2019-02-23T01:23:42.762Z,1.28
2019-02-23T01:26:12.294Z,1.24
2019-02-23T01:28:41.779Z,1.15
2019-02-23T01:31:11.298Z,1.15
2019-02-23T01:33:41.795Z,1.10
2019-02-23T01:36:30.650Z,1.16
2019-02-23T01:39:00.167Z,1.25
2019-02-23T01:41:49.013Z,1.36
2019-02-23T01:44:18.506Z,0.60
2019-02-23T01:46:49.259Z,1.49
2019-02-23T01:49:18.760Z,1.51
2019-02-23T01:51:48.261Z,1.55
2019-02-23T01:54:17.775Z,1.62
2019-02-23T01:57:06.648Z,1.63
2019-02-23T01:59:36.137Z,1.68
2019-02-23T02:02:05.791Z,1.65
2019-02-23T02:04:35.282Z,1.61
2019-02-23T02:07:06.088Z,1.50
2019-02-23T02:09:35.645Z,1.50
2019-02-23T02:12:06.715Z,1.51
2019-02-23T02:14:55.529Z,1.56
2019-02-23T02:17:25.039Z,1.60
2019-02-23T02:20:11.147Z,1.51
2019-02-23T02:22:37.769Z,1.45
2019-02-23T02:25:09.060Z,1.41
2019-02-23T02:27:38.566Z,1.47
2019-02-23T02:30:11.177Z,1.50
2019-02-23T02:32:40.680Z,1.49
2019-02-23T02:35:11.544Z,1.59
2019-02-23T02:37:41.121Z,2.03
2019-02-23T02:40:10.971Z,1.67
2019-02-23T02:42:40.488Z,1.68
2019-02-23T02:45:29.395Z,1.78
2019-02-23T02:47:58.906Z,1.45
2019-02-23T02:50:28.401Z,1.47
2019-02-23T02:52:57.909Z,1.42
2019-02-23T02:55:27.434Z,1.40
2019-02-23T02:57:56.938Z,1.58
2019-02-23T03:00:26.452Z,1.53
2019-02-23T03:02:55.983Z,1.92
2019-02-23T03:05:25.469Z,1.78
2019-02-23T03:07:54.988Z,1.63
2019-02-23T03:10:24.479Z,1.63
2019-02-23T03:12:54.001Z,1.59
2019-02-23T03:15:23.498Z,1.61
2019-02-23T03:17:53.010Z,1.43
2019-02-23T03:20:22.510Z,1.52
2019-02-23T03:22:52.026Z,1.36
2019-02-23T03:25:21.534Z,1.06
2019-02-23T03:27:51.113Z,0.96
2019-02-23T03:30:20.610Z,0.91
2019-02-23T03:32:50.120Z,0.91
2019-02-23T03:35:19.608Z,0.84
2019-02-23T03:37:49.126Z,1.26
2019-02-23T03:40:38.044Z,1.44
2019-02-23T03:43:07.577Z,1.36
2019-02-23T03:45:37.068Z,1.25
2019-02-23T03:48:06.584Z,1.19
2019-02-23T03:50:48.411Z,0.96
2019-02-23T03:56:28.746Z,0.94
2019-02-23T03:58:58.524Z,0.70
2019-02-23T04:01:28.019Z,0.67
2019-02-23T04:03:58.387Z,0.92
2019-02-23T04:06:27.929Z,1.11
2019-02-23T04:08:57.418Z,0.89
2019-02-23T04:11:26.923Z,0.64
2019-02-23T04:13:56.439Z,0.56
2019-02-23T04:16:26.736Z,0.48
2019-02-23T04:18:56.259Z,0.53
2019-02-23T04:21:25.760Z,0.78
2019-02-23T04:23:55.501Z,0.90
2019-02-23T04:26:25.167Z,0.63
2019-02-23T04:28:54.874Z,0.42
2019-02-23T04:31:24.361Z,0.62
2019-02-23T04:33:53.877Z,0.56
2019-02-23T04:36:23.363Z,0.75
2019-02-23T04:38:52.870Z,0.76
2019-02-23T04:41:23.104Z,0.53
2019-02-23T04:43:52.645Z,0.58
2019-02-23T04:46:22.134Z,0.50
2019-02-23T04:48:51.708Z,0.36
2019-02-23T04:51:40.494Z,0.35
2019-02-23T04:54:10.011Z,0.52
2019-02-23T04:56:39.505Z,0.41
2019-02-23T04:59:09.021Z,0.20
2019-02-23T05:01:39.397Z,-0.01
2019-02-23T05:04:28.243Z,0.19
2019-02-23T05:06:57.739Z,0.09
2019-02-23T05:09:27.263Z,-0.05
2019-02-23T05:11:56.764Z,-0.12
2019-02-23T05:14:26.291Z,-0.14
2019-02-23T05:16:55.801Z,-0.26
2019-02-23T05:19:25.317Z,-0.37
2019-02-23T05:22:14.189Z,-0.18
2019-02-23T05:24:43.682Z,-0.30
2019-02-23T05:27:14.456Z,-0.24
2019-02-23T05:29:43.996Z,-0.31
2019-02-23T05:32:13.488Z,-0.35
2019-02-23T05:34:43.000Z,-0.51
2019-02-23T05:37:12.521Z,-0.38
2019-02-23T05:39:43.281Z,-0.75
2019-02-23T05:42:12.775Z,-0.87
2019-02-23T05:44:42.308Z,-0.93
2019-02-23T05:47:24.615Z,-1.02
2019-02-23T05:49:54.159Z,-1.86
2019-02-23T05:52:23.649Z,-1.16
2019-02-23T05:55:31.523Z,-1.14
2019-02-23T05:58:01.048Z,-1.19
2019-02-23T06:00:30.557Z,-1.27
2019-02-23T06:03:00.051Z,-1.28
2019-02-23T06:05:29.571Z,-1.36
2019-02-23T06:07:59.100Z,-1.29
2019-02-23T06:10:28.673Z,-1.40
2019-02-23T06:13:18.367Z,-1.47
2019-02-23T06:15:47.897Z,-1.49
2019-02-23T06:18:37.568Z,-1.50
2019-02-23T06:21:26.410Z,-1.52
2019-02-23T06:24:08.895Z,-1.54
2019-02-23T06:26:38.441Z,-1.53
2019-02-23T06:29:07.951Z,-1.49
2019-02-23T06:31:37.466Z,-1.51
2019-02-23T06:34:26.318Z,-1.50
2019-02-23T06:37:09.013Z,-1.49
2019-02-23T06:39:39.597Z,-1.46
2019-02-23T06:42:09.099Z,-1.36
2019-02-23T06:45:16.973Z,-1.23
2019-02-23T06:47:46.473Z,-1.59
2019-02-23T06:50:35.357Z,-0.78
2019-02-23T06:53:18.151Z,-0.61
2019-02-23T06:55:47.945Z,-0.29
2019-02-23T06:58:36.802Z,1.02
2019-02-23T07:01:25.667Z,2.00
2019-02-23T07:03:55.181Z,4.64
2019-02-23T07:06:44.047Z,6.48
2019-02-23T07:09:13.549Z,8.15
2019-02-23T07:12:02.375Z,9.22
2019-02-23T07:14:32.552Z,9.94
2019-02-23T07:17:02.040Z,9.96
2019-02-23T07:19:31.575Z,9.62
2019-02-23T07:22:01.055Z,9.75
2019-02-23T07:24:30.562Z,7.59
2019-02-23T07:27:00.175Z,4.50
2019-02-23T07:29:29.679Z,2.74
2019-02-23T07:31:59.173Z,2.28
2019-02-23T07:34:48.024Z,1.70
2019-02-23T07:37:17.515Z,1.50
2019-02-23T07:40:27.249Z,1.70
2019-02-23T07:42:56.736Z,2.48
2019-02-23T07:45:26.253Z,2.39
2019-02-23T07:48:34.121Z,2.43
2019-02-23T07:51:03.612Z,1.90
2019-02-23T07:53:33.153Z,2.55
2019-02-23T07:56:02.661Z,3.27
2019-02-23T07:58:51.496Z,5.85
2019-02-23T08:01:40.335Z,8.93
2019-02-23T08:04:09.862Z,9.63
2019-02-23T08:06:39.367Z,10.28
2019-02-23T08:09:09.663Z,9.61
2019-02-23T08:11:39.162Z,10.77
2019-02-23T08:14:08.668Z,12.67
2019-02-23T08:16:38.166Z,11.92
2019-02-23T08:19:07.686Z,14.57
2019-02-23T08:21:37.219Z,11.72
2019-02-23T08:24:06.701Z,11.43
2019-02-23T08:26:36.237Z,11.91
2019-02-23T08:29:05.739Z,12.69
2019-02-23T08:31:35.246Z,12.52
2019-02-23T08:34:24.075Z,15.20
2019-02-23T08:36:53.583Z,13.08
2019-02-23T08:39:42.456Z,12.31
2019-02-23T08:42:11.955Z,13.24
2019-02-23T08:44:41.525Z,12.51
2019-02-23T08:47:11.051Z,14.26
2019-02-23T08:49:40.540Z,13.33
2019-02-23T08:52:10.980Z,13.57
2019-02-23T08:54:40.468Z,15.60
2019-02-23T08:57:09.999Z,18.16
2019-02-23T08:59:39.477Z,13.90
2019-02-23T09:02:09.032Z,13.15
2019-02-23T09:04:38.527Z,10.50
2019-02-23T09:07:08.031Z,12.61
2019-02-23T09:09:37.515Z,13.01
2019-02-23T09:12:07.660Z,11.80
2019-02-23T09:14:37.167Z,10.59
2019-02-23T09:17:07.377Z,11.19
2019-02-23T09:19:36.885Z,11.42
2019-02-23T09:22:06.566Z,10.92
2019-02-23T09:24:36.137Z,13.82
2019-02-23T09:27:05.647Z,14.43
2019-02-23T09:29:35.525Z,12.30
2019-02-23T09:32:05.021Z,8.61
2019-02-23T09:34:34.524Z,10.74
2019-02-23T09:37:04.030Z,12.93
2019-02-23T09:39:33.516Z,12.04
2019-02-23T09:42:07.562Z,10.71
2019-02-23T09:44:35.066Z,10.61
2019-02-23T09:47:23.930Z,8.67
2019-02-23T09:50:06.165Z,7.85
2019-02-23T09:52:35.720Z,8.74
2019-02-23T09:55:36.860Z,8.12
2019-02-23T09:57:56.150Z,8.48
2019-02-23T10:00:25.635Z,6.97
2019-02-23T10:02:55.458Z,7.10
2019-02-23T10:05:24.937Z,6.25
2019-02-23T10:07:54.446Z,8.24
2019-02-23T10:10:23.931Z,7.67
2019-02-23T10:12:53.512Z,6.16
2019-02-23T10:15:23.716Z,6.30
2019-02-23T10:18:12.553Z,6.36
2019-02-23T10:20:42.032Z,5.49
2019-02-23T10:23:21.529Z,7.11
2019-02-23T10:25:42.769Z,5.98
2019-02-23T10:28:12.274Z,5.47
2019-02-23T10:30:41.749Z,6.44
2019-02-23T10:33:11.241Z,6.16
2019-02-23T10:35:41.638Z,6.29
2019-02-23T10:38:11.144Z,6.30
2019-02-23T10:40:40.631Z,6.84
2019-02-23T10:43:10.236Z,7.33
2019-02-23T10:45:39.757Z,6.93
2019-02-23T10:48:09.834Z,7.17
2019-02-23T10:50:39.382Z,6.55
2019-02-23T10:53:08.885Z,6.36
2019-02-23T10:55:38.372Z,5.89
2019-02-23T10:58:07.899Z,7.44
2019-02-23T11:00:38.188Z,10.52
2019-02-23T11:03:07.693Z,9.75
2019-02-23T11:05:37.172Z,9.66
2019-02-23T11:08:06.755Z,9.22
2019-02-23T11:10:36.237Z,10.53
2019-02-23T11:13:06.097Z,11.31
2019-02-23T11:15:35.649Z,10.76
2019-02-23T11:18:05.288Z,8.46
2019-02-23T11:20:34.848Z,10.39
2019-02-23T11:23:43.732Z,9.19
2019-02-23T11:26:27.206Z,8.62
2019-02-23T11:29:09.974Z,11.10
2019-02-23T11:31:39.529Z,11.42
2019-02-23T11:34:09.066Z,12.55
2019-02-23T11:36:38.556Z,12.36
2019-02-23T11:39:08.154Z,10.79
2019-02-23T11:41:37.636Z,11.53
2019-02-23T11:44:07.136Z,14.84
2019-02-23T11:46:36.653Z,13.15
2019-02-23T11:49:08.243Z,13.94
2019-02-23T11:51:37.439Z,12.85
2019-02-23T11:54:06.956Z,12.49
2019-02-23T11:56:36.458Z,10.56
2019-02-23T11:59:19.018Z,11.34
2019-02-23T12:01:48.574Z,11.75
2019-02-23T12:04:18.086Z,12.78
2019-02-23T12:06:47.570Z,13.08
2019-02-23T12:09:17.133Z,12.48
2019-02-23T12:12:05.993Z,12.16
2019-02-23T12:14:54.840Z,13.09
2019-02-23T12:17:24.444Z,11.11
2019-02-23T12:19:55.398Z,11.28
2019-02-23T12:22:24.989Z,11.21
2019-02-23T12:24:54.476Z,12.70
2019-02-23T12:27:23.994Z,12.52
2019-02-23T12:29:53.486Z,14.57
2019-02-23T12:32:23.001Z,13.47
2019-02-23T12:35:23.726Z,12.68
2019-02-23T12:38:12.623Z,11.85
2019-02-23T12:40:42.130Z,12.29
2019-02-23T12:46:12.448Z,11.72
2019-02-23T12:48:41.956Z,10.20
2019-02-23T12:51:11.480Z,12.52
2019-02-23T12:53:41.015Z,11.38
2019-02-23T12:56:10.528Z,14.73
2019-02-23T12:58:40.058Z,9.88
2019-02-23T13:01:09.577Z,11.41
2019-02-23T13:03:39.094Z,12.55
2019-02-23T13:06:08.585Z,12.33
2019-02-23T13:09:15.937Z,12.13
2019-02-23T13:11:52.968Z,13.63
2019-02-23T13:14:56.707Z,13.48
2019-02-23T13:18:05.302Z,15.52
2019-02-23T13:21:09.463Z,9.90
2019-02-23T13:24:09.230Z,11.12
2019-02-23T13:27:15.967Z,11.78
2019-02-23T13:30:04.150Z,11.79
2019-02-23T13:33:00.238Z,11.51
2019-02-23T13:36:07.249Z,8.73
2019-02-23T13:39:18.997Z,8.97
2019-02-23T13:42:05.715Z,9.96
2019-02-23T13:45:12.659Z,9.32
2019-02-23T13:47:46.817Z,9.74
2019-02-23T13:50:35.658Z,13.71
2019-02-23T13:53:12.858Z,10.62
2019-02-23T13:55:53.013Z,10.43
2019-02-23T13:58:29.729Z,9.03
2019-02-23T14:01:19.925Z,8.57
2019-02-23T14:04:10.605Z,9.19
2019-02-23T14:06:59.510Z,7.38
2019-02-23T14:09:39.615Z,6.96
2019-02-23T14:12:35.827Z,7.19
2019-02-23T14:15:32.205Z,7.54
2019-02-23T14:18:24.142Z,7.63
2019-02-23T14:21:19.056Z,7.42
2019-02-23T14:24:11.216Z,6.63
2019-02-23T14:27:08.353Z,7.22
2019-02-23T14:30:35.907Z,6.56
2019-02-23T14:33:24.785Z,6.70
2019-02-23T14:36:22.165Z,6.59
2019-02-23T14:38:58.889Z,6.32
2019-02-23T14:42:08.629Z,6.49
2019-02-23T14:44:48.356Z,6.93
2019-02-23T14:47:30.851Z,6.83
2019-02-23T14:50:36.654Z,6.24
2019-02-23T14:53:25.883Z,5.98
2019-02-23T14:56:23.382Z,5.32
2019-02-23T14:59:15.512Z,5.23
2019-02-23T15:01:55.214Z,5.39
2019-02-23T15:04:32.073Z,5.66
2019-02-23T15:07:23.237Z,5.16
2019-02-23T15:10:02.967Z,5.04
2019-02-23T15:12:45.593Z,5.18
2019-02-23T15:16:17.240Z,4.97
2019-02-23T15:19:42.366Z,4.78
2019-02-23T15:22:23.259Z,4.67
2019-02-23T15:25:31.939Z,4.40
2019-02-23T15:28:26.757Z,4.21
2019-02-23T15:31:26.192Z,4.28
2019-02-23T15:34:25.547Z,3.82
2019-02-23T15:37:05.423Z,3.84
2019-02-23T15:39:54.091Z,3.85
2019-02-23T15:42:41.280Z,3.69
2019-02-23T15:45:52.537Z,3.73
2019-02-23T15:48:51.865Z,3.61
2019-02-23T15:51:21.508Z,3.42
2019-02-23T15:53:51.057Z,3.40
2019-02-23T15:56:20.571Z,3.17
2019-02-23T15:59:09.394Z,3.08
2019-02-23T16:01:38.926Z,2.18
2019-02-23T16:04:09.030Z,3.14
2019-02-23T16:06:38.523Z,3.15
2019-02-23T16:09:08.082Z,3.20
2019-02-23T16:11:37.605Z,3.07
2019-02-23T16:14:07.126Z,3.04
2019-02-23T16:17:15.069Z,2.95
2019-02-23T16:19:44.620Z,2.81
2019-02-23T16:22:14.346Z,2.66
2019-02-23T16:24:43.848Z,2.71
2019-02-23T16:27:13.449Z,2.48
2019-02-23T16:29:42.950Z,2.33
2019-02-23T16:32:12.457Z,2.36
2019-02-23T16:34:41.937Z,2.36
2019-02-23T16:37:11.449Z,2.07
2019-02-23T16:39:40.931Z,1.90
2019-02-23T16:42:10.444Z,1.76
2019-02-23T16:44:39.927Z,1.84
2019-02-23T16:47:09.451Z,1.68
2019-02-23T16:49:38.917Z,1.67
2019-02-23T16:52:09.353Z,1.56
2019-02-23T16:54:39.500Z,1.33
2019-02-23T16:57:09.009Z,1.26
2019-02-23T16:59:38.495Z,1.13
2019-02-23T17:02:08.033Z,1.09
2019-02-23T17:04:37.542Z,0.98
2019-02-23T17:07:07.609Z,0.71
2019-02-23T17:09:37.109Z,0.70
2019-02-23T17:12:45.014Z,0.72
2019-02-23T17:15:33.829Z,0.36
2019-02-23T17:18:16.353Z,-0.17
2019-02-23T17:20:45.832Z,0.67
2019-02-23T17:23:15.344Z,0.62
2019-02-23T17:25:44.854Z,0.50
2019-02-23T17:28:14.371Z,0.45
2019-02-23T17:30:43.872Z,0.33
2019-02-23T17:33:13.375Z,0.36
2019-02-23T17:36:02.310Z,0.34
2019-02-23T17:38:44.858Z,0.23
2019-02-23T17:41:14.433Z,0.18
2019-02-23T17:44:03.300Z,0.17
2019-02-23T17:46:52.123Z,0.26
2019-02-23T17:49:21.649Z,-0.01
2019-02-23T17:51:51.134Z,0.01
2019-02-23T17:54:20.675Z,0.03
2019-02-23T17:56:50.154Z,-0.02
2019-02-23T17:59:19.687Z,-0.02
2019-02-23T18:01:49.201Z,-0.06
2019-02-23T18:04:19.368Z,-0.07
2019-02-23T18:06:48.841Z,-0.04
2019-02-23T18:09:37.684Z,-0.14
2019-02-23T18:12:07.195Z,-0.68
2019-02-23T18:14:36.709Z,-0.33
2019-02-23T18:17:06.233Z,-0.36
2019-02-23T18:19:35.747Z,-0.47
2019-02-23T18:22:05.328Z,-0.43
2019-02-23T18:24:34.835Z,-0.39
2019-02-23T18:27:04.320Z,-0.49
2019-02-23T18:29:33.846Z,-0.60
2019-02-23T18:32:03.364Z,-0.64
2019-02-23T18:34:32.872Z,-0.76
2019-02-23T18:37:02.367Z,-0.84
2019-02-23T18:39:31.889Z,-0.85
2019-02-23T18:42:20.741Z,-0.84
2019-02-23T18:45:03.343Z,-0.89
2019-02-23T18:47:32.827Z,-0.94
2019-02-23T18:50:02.342Z,-1.00
2019-02-23T18:52:31.838Z,-1.12
2019-02-23T18:55:01.379Z,-1.07
2019-02-23T18:57:30.888Z,-1.21
2019-02-23T19:00:00.409Z,-1.06
2019-02-23T19:02:30.526Z,-1.09
2019-02-23T19:05:00.052Z,-1.17
2019-02-23T19:07:29.551Z,-1.16
2019-02-23T19:09:59.063Z,-1.30
2019-02-23T19:12:28.550Z,-1.41
2019-02-23T19:14:59.616Z,-1.46
2019-02-23T19:17:42.341Z,-1.52
2019-02-23T19:20:31.221Z,-2.58
2019-02-23T19:23:13.384Z,-1.86
2019-02-23T19:26:02.259Z,-1.58
2019-02-23T19:28:31.789Z,-1.76
2019-02-23T19:31:01.277Z,-1.62
2019-02-23T19:33:30.797Z,-1.62
2019-02-23T19:36:00.296Z,-1.73
2019-02-23T19:38:29.819Z,-1.72
2019-02-23T19:40:59.340Z,-1.76
2019-02-23T19:43:28.892Z,-1.81
2019-02-23T19:45:58.421Z,-1.81
2019-02-23T19:48:27.953Z,-1.90
2019-02-23T19:51:02.712Z,-1.99
2019-02-23T19:53:32.247Z,-1.95
2019-02-23T19:56:01.748Z,-1.98
2019-02-23T19:58:31.338Z,-2.05
2019-02-23T20:01:00.916Z,-2.09
2019-02-23T20:03:30.434Z,-2.12
2019-02-23T20:06:19.593Z,-2.20
2019-02-23T20:09:08.448Z,-2.19
2019-02-23T20:11:37.976Z,-2.21
2019-02-23T20:14:07.499Z,-2.23
2019-02-23T20:16:36.993Z,-2.28
2019-02-23T20:19:06.516Z,-2.20
2019-02-23T20:21:36.075Z,-2.14
2019-02-23T20:24:05.604Z,-2.31
2019-02-23T20:26:35.105Z,-2.38
2019-02-23T20:29:04.630Z,-2.33
2019-02-23T20:31:34.131Z,-2.37
2019-02-23T20:34:23.028Z,-2.43
2019-02-23T20:37:11.867Z,-2.46
2019-02-23T20:39:41.908Z,-2.45
2019-02-23T20:42:11.397Z,-2.44
2019-02-23T20:44:41.277Z,-2.54
2019-02-23T20:47:10.844Z,-2.56
2019-02-23T20:49:40.380Z,-2.51
2019-02-23T20:52:29.731Z,-2.43
2019-02-23T20:55:12.156Z,-2.53
2019-02-23T20:57:41.659Z,-3.02
2019-02-23T21:00:14.257Z,-2.60
2019-02-23T21:02:43.853Z,-2.60
2019-02-23T21:05:14.697Z,-2.61
2019-02-23T21:07:44.822Z,-2.62
2019-02-23T21:10:14.486Z,-2.58
2019-02-23T21:12:43.967Z,-2.66
2019-02-23T21:15:13.619Z,-2.72
2019-02-23T21:17:43.123Z,-2.75
2019-02-23T21:20:13.089Z,-2.74
2019-02-23T21:22:42.584Z,-2.88
2019-02-23T21:25:12.175Z,-2.90
2019-02-23T21:27:41.669Z,-2.98
2019-02-23T21:30:12.144Z,-2.93
2019-02-23T21:32:41.634Z,-2.92
2019-02-23T21:35:11.159Z,-3.01
2019-02-23T21:38:00.017Z,-2.97
2019-02-23T21:40:29.554Z,-3.11
2019-02-23T21:42:59.112Z,-3.13
2019-02-23T21:45:28.660Z,-3.20
2019-02-23T21:47:58.154Z,-3.23
2019-02-23T21:50:27.688Z,-3.19
2019-02-23T21:52:57.182Z,-3.26
2019-02-23T21:55:46.051Z,-3.33
2019-02-23T21:58:15.587Z,-3.35
2019-02-23T22:01:04.432Z,-3.44
2019-02-23T22:03:44.873Z,-3.43
2019-02-23T22:06:14.612Z,-3.51
2019-02-23T22:08:44.103Z,-3.51
2019-02-23T22:11:13.647Z,-3.53
2019-02-23T22:13:43.141Z,-3.62
2019-02-23T22:16:12.644Z,-3.54
2019-02-23T22:18:42.156Z,-3.64
2019-02-23T22:21:11.675Z,-3.60
2019-02-23T22:23:41.175Z,-3.59
2019-02-23T22:26:10.713Z,-3.64
2019-02-23T22:28:59.547Z,-3.64
2019-02-23T22:31:29.068Z,-3.58
2019-02-23T22:33:58.723Z,-3.56
2019-02-23T22:36:28.285Z,-3.66
2019-02-23T22:38:57.779Z,-3.69
2019-02-23T22:41:27.321Z,-3.63
2019-02-23T22:43:56.810Z,-3.58
2019-02-23T22:46:26.325Z,-3.57
2019-02-23T22:48:55.830Z,-3.68
2019-02-23T22:51:44.775Z,-3.79
2019-02-23T22:54:14.269Z,-4.81
2019-02-23T22:56:43.770Z,-3.85
2019-02-23T22:59:13.315Z,-3.91
2019-02-23T23:01:42.855Z,-3.77
2019-02-23T23:04:12.347Z,-3.75
2019-02-23T23:06:41.885Z,-3.86
2019-02-23T23:09:13.017Z,-3.83
2019-02-23T23:12:01.872Z,-3.88
2019-02-23T23:14:44.460Z,-3.98
2019-02-23T23:17:14.005Z,-4.06
2019-02-23T23:19:43.497Z,-4.08
2019-02-23T23:22:13.013Z,-4.01
2019-02-23T23:24:42.502Z,-4.03
2019-02-23T23:27:12.058Z,-4.10
2019-02-23T23:29:41.540Z,-4.07
2019-02-23T23:32:11.058Z,-4.12
2019-02-23T23:34:40.554Z,-4.18
2019-02-23T23:37:10.098Z,-4.17
2019-02-23T23:39:39.593Z,-4.17
2019-02-23T23:42:10.347Z,-4.16
2019-02-23T23:44:39.848Z,-4.04
2019-02-23T23:47:09.365Z,-4.11
2019-02-23T23:49:38.854Z,-4.22
2019-02-23T23:52:08.565Z,-4.26
2019-02-23T23:54:38.948Z,-4.29
2019-02-23T23:57:08.499Z,-4.32
2019-02-23T23:59:57.376Z,-4.43
